Terminal Aerodrome Forecast
Issued by NWS Caribou, ME

Home | Current Version | Previous Version | Text Only | Print | Product List | Glossary On
Versions: 1 2 3 4 5 6 7 8 9 10 11 12 13 14 15 16 17 18 19
491
FTUS41 KCAR 192320
TAFCAR
TAF
KCAR 192320Z 2000/2024 16006KT 6SM -DZ BKN015
     FM200300 17004KT 2SM BR VCSH BKN002
     FM201600 29009KT P6SM BKN025=

USA.gov is the U.S. government's official web portal to all federal, state and local government web resources and services.